»·PEaware :: SKY302 KCLM-KFHR

SKY302 :: KCLM-KFHR

FLIGHT INFORMATION

Flight Status: Arrived
Operator:
Sky High Charters
More flights by this operator :: More flights under this callsign
Pilot: Matt S. (28717)
Aircraft: PIPER PA-28 CHEROKEE ARCHER
(P28A)
More flights by this aircraft type
Origin: KCLM Fairchild Intl
United States
Destination: KFHR Friday Harbor
United States
More flights between these airports :: More routes between these airports
Route: +WATTR7 WATTR
File this flight plan on PilotEdge
Remarks:
Altitude:
(Current/Filed)
7,000ft
Speed:
(Current/Filed)
110kts
Departed: 21-Nov-20 02:26 PM
Arrived: 21-Nov-20 03:10 PM
Distance/Time
Traveled:
31nm/0:44
Distance/Time
To Go:
Arrived

Flight Plot

Page will automatically refresh every two minutes.

Flight plan parsing failed; only flown route is shown


Map Options




Map Legend


Flown Route
Filed Route
Departure Airport
Arrival Airport
Navaid (VOR, NDB)
Fix

Horizontal Profiles

Position Reports

Time Latitude Longitude Heading Altitude Ground
Speed
21-Nov-20 13:58 48.116317 -123.495200 19 293ft 0kts
21-Nov-20 13:59 48.116317 -123.495200 19 293ft 0kts
21-Nov-20 14:00 48.116317 -123.495200 19 293ft 0kts
21-Nov-20 14:01 48.116318 -123.495200 19 293ft 0kts
21-Nov-20 14:03 48.116318 -123.495200 19 293ft 0kts
21-Nov-20 14:04 48.116318 -123.495200 19 293ft 0kts
21-Nov-20 14:05 48.116318 -123.495200 19 293ft 0kts
21-Nov-20 14:06 48.116318 -123.495199 19 293ft 0kts
21-Nov-20 14:07 48.116318 -123.495199 19 293ft 0kts
21-Nov-20 14:08 48.116318 -123.495199 19 293ft 0kts
21-Nov-20 14:09 48.116319 -123.495199 19 293ft 0kts
21-Nov-20 14:10 48.116320 -123.495198 19 293ft 0kts
21-Nov-20 14:11 48.116322 -123.495197 19 293ft 0kts
21-Nov-20 14:12 48.116323 -123.495197 19 293ft 0kts
21-Nov-20 14:13 48.116324 -123.495196 19 293ft 0kts
21-Nov-20 14:14 48.116326 -123.495195 19 293ft 0kts
21-Nov-20 14:15 48.116327 -123.495194 19 293ft 0kts
21-Nov-20 14:16 48.117070 -123.493848 106 293ft 10kts
21-Nov-20 14:17 48.115922 -123.487195 99 293ft 10kts
21-Nov-20 14:17 48.115981 -123.486590 46 293ft 0kts
21-Nov-20 14:19 48.115987 -123.486581 46 293ft 0kts
21-Nov-20 14:19 48.115987 -123.486580 46 293ft 0kts
21-Nov-20 14:20 48.115989 -123.486578 46 293ft 0kts
21-Nov-20 14:22 48.115990 -123.486576 46 293ft 0kts
21-Nov-20 14:22 48.115991 -123.486575 46 293ft 0kts
21-Nov-20 14:24 48.115993 -123.486572 46 293ft 0kts
21-Nov-20 14:24 48.115994 -123.486571 46 293ft 0kts
21-Nov-20 14:26 48.121006 -123.504096 300 783ft 86kts
21-Nov-20 14:26 48.137415 -123.510850 34 1739ft 93kts
21-Nov-20 14:27 48.155998 -123.483285 47 2717ft 96kts
21-Nov-20 14:28 48.166941 -123.449241 105 3523ft 97kts
21-Nov-20 14:29 48.157834 -123.410771 109 4343ft 97kts
21-Nov-20 14:30 48.151980 -123.371206 109 5199ft 99kts
21-Nov-20 14:31 48.146321 -123.330005 109 5938ft 103kts
21-Nov-20 14:32 48.141189 -123.288741 96 6665ft 101kts
21-Nov-20 14:33 48.141287 -123.247381 94 7392ft 97kts
21-Nov-20 14:34 48.141672 -123.201236 95 7203ft 137kts
21-Nov-20 14:35 48.140676 -123.144367 96 6696ft 126kts
21-Nov-20 14:36 48.140751 -123.094756 95 6719ft 119kts
21-Nov-20 14:37 48.141081 -123.049065 95 7002ft 103kts
21-Nov-20 14:38 48.141083 -123.001147 95 6937ft 113kts
21-Nov-20 14:39 48.139341 -122.953411 93 6889ft 121kts
21-Nov-20 14:40 48.139317 -122.902179 101 6710ft 122kts
21-Nov-20 14:41 48.155694 -122.875357 346 6837ft 121kts
21-Nov-20 14:42 48.180426 -122.891384 318 6733ft 117kts
21-Nov-20 14:43 48.206629 -122.920289 303 6594ft 116kts
21-Nov-20 14:44 48.237346 -122.937524 332 6364ft 125kts
21-Nov-20 14:45 48.268215 -122.959280 322 6188ft 124kts
21-Nov-20 14:46 48.296946 -122.986163 322 5850ft 118kts
21-Nov-20 14:47 48.327999 -122.998794 348 5453ft 118kts
21-Nov-20 14:48 48.348460 -123.003052 347 5202ft 117kts
21-Nov-20 14:49 48.376764 -123.006317 354 4857ft 118kts
21-Nov-20 14:50 48.409602 -123.008649 354 4459ft 118kts
21-Nov-20 14:51 48.434032 -123.010574 354 4161ft 118kts
21-Nov-20 14:52 48.464325 -123.016386 350 3790ft 117kts
21-Nov-20 14:53 48.497110 -123.021795 355 3349ft 118kts
21-Nov-20 14:54 48.521686 -123.024377 355 2947ft 102kts
21-Nov-20 14:55 48.541656 -123.019951 78 2665ft 89kts
21-Nov-20 14:56 48.525539 -123.015637 205 2512ft 77kts
21-Nov-20 14:57 48.500105 -123.030828 201 2608ft 110kts
21-Nov-20 14:58 48.470509 -123.038849 167 2626ft 113kts
21-Nov-20 14:59 48.439864 -123.027006 166 2635ft 114kts
21-Nov-20 15:00 48.412733 -123.004593 132 2601ft 119kts
21-Nov-20 15:01 48.392505 -122.968601 137 2326ft 95kts
21-Nov-20 15:02 48.379073 -122.981086 292 2394ft 95kts
21-Nov-20 15:03 48.405216 -122.990556 357 2300ft 104kts
21-Nov-20 15:04 48.433604 -123.000253 335 2110ft 108kts
21-Nov-20 15:05 48.459417 -123.015581 341 1608ft 103kts
21-Nov-20 15:06 48.484584 -123.022327 3 929ft 82kts
21-Nov-20 15:07 48.502654 -123.023281 357 495ft 79kts
21-Nov-20 15:08 48.519948 -123.024239 353 107ft 44kts
21-Nov-20 15:09 48.524553 -123.025820 323 107ft 7kts
21-Nov-20 15:10 48.524645 -123.025862 2 107ft 0kts
21-Nov-20 15:11 48.524645 -123.025862 2 107ft 0kts
21-Nov-20 15:12 48.524645 -123.025862 2 107ft 0kts
21-Nov-20 15:13 48.524645 -123.025862 2 107ft 0kts
21-Nov-20 15:14 48.524645 -123.025862 2 107ft 0kts
21-Nov-20 15:15 48.524645 -123.025862 2 107ft 0kts
21-Nov-20 15:16 48.524645 -123.025862 2 107ft 0kts
21-Nov-20 15:17 48.524645 -123.025862 2 107ft 0kts
21-Nov-20 15:18 48.524645 -123.025862 2 107ft 0kts
21-Nov-20 15:19 48.524645 -123.025862 2 107ft 0kts

Navigation Log

Ident Type
Flight plan parsing failed, navigation log unavailable